Time;durP1;ratioP1;P1;durP2;ratioP2;P2;SDS_P1;SDS_P2;PMS_P1;PMS_P2;Temp;Humidity;BMP_temperature;BMP_pressure;BME280_temperature;BME280_humidity;BME280_pressure;Samples;Min_cycle;Max_cycle;Signal;HPM_P1;HPM_P2
2023/07/22 00:03:29;;;;;;;3.20;1.77;;;;;;;17.79;86.37;100143.81;5058472;56;1138868;-71
2023/07/22 00:08:35;;;;;;;4.45;1.60;;;;;;;17.58;88.86;100138.17;4942204;57;1138641;-73
2023/07/22 00:13:43;;;;;;;1.85;1.75;;;;;;;17.46;89.84;100132.37;4942226;56;1138759;-74
2023/07/22 00:18:48;;;;;;;1.75;1.60;;;;;;;17.41;90.29;100137.43;5022892;57;1138881;-72
2023/07/22 00:23:54;;;;;;;6.50;2.70;;;;;;;17.40;88.75;100137.09;5042856;57;1138710;-71
2023/07/22 00:28:59;;;;;;;2.62;1.72;;;;;;;17.42;88.76;100128.37;5023069;57;1138846;-72
2023/07/22 00:34:05;;;;;;;9.68;4.72;;;;;;;17.50;88.88;100128.36;5023047;57;1138742;-73
2023/07/22 00:39:13;;;;;;;37.00;16.10;;;;;;;17.50;89.17;100131.03;5042727;57;1139517;-75
2023/07/22 00:44:18;;;;;;;37.47;12.03;;;;;;;17.50;88.84;100120.34;4959735;56;1143314;-73
2023/07/22 00:49:25;;;;;;;9.70;4.20;;;;;;;17.51;88.99;100110.48;4941556;58;1142799;-72
2023/07/22 00:54:32;;;;;;;2.05;1.75;;;;;;;17.49;88.82;100115.16;4961487;58;1138835;-72
2023/07/22 00:59:39;;;;;;;3.60;1.60;;;;;;;17.53;89.09;100115.98;4962070;57;1138978;-71
2023/07/22 01:04:45;;;;;;;3.63;1.57;;;;;;;17.58;88.87;100122.96;4941598;58;1139098;-71
2023/07/22 01:09:54;;;;;;;1.65;1.57;;;;;;;17.57;88.69;100129.31;4961435;58;1139120;-74
2023/07/22 01:15:01;;;;;;;2.85;1.40;;;;;;;17.61;88.96;100128.98;4901597;58;1138881;-70
2023/07/22 01:20:09;;;;;;;1.83;1.60;;;;;;;17.63;88.79;100125.63;4960366;58;1138690;-72
2023/07/22 01:25:15;;;;;;;5.12;1.35;;;;;;;17.53;88.29;100124.01;4980739;58;1139068;-71
2023/07/22 01:30:22;;;;;;;1.10;1.03;;;;;;;17.43;88.45;100131.38;4918743;57;1138715;-72
2023/07/22 01:35:28;;;;;;;1.37;1.27;;;;;;;17.35;89.01;100127.91;4959952;57;1138741;-75
2023/07/22 01:40:33;;;;;;;2.10;1.30;;;;;;;17.20;89.27;100123.78;4972724;58;1138748;-70
2023/07/22 01:45:39;;;;;;;1.30;1.30;;;;;;;17.08;89.92;100125.98;5053605;57;1138706;-73
2023/07/22 01:50:45;;;;;;;2.13;1.20;;;;;;;17.08;90.48;100129.16;4973309;57;1138623;-74
2023/07/22 01:55:50;;;;;;;1.27;1.27;;;;;;;16.93;90.49;100126.85;5024628;57;1138732;-70
2023/07/22 02:00:56;;;;;;;1.75;1.65;;;;;;;16.83;91.36;100129.69;5055238;56;1138857;-71
2023/07/22 02:06:07;;;;;;;4.77;1.83;;;;;;;16.70;91.95;100141.38;5071432;57;1138895;-74
2023/07/22 02:11:14;;;;;;;4.80;1.32;;;;;;;16.59;92.96;100145.70;4979756;58;1138781;-71
2023/07/22 02:16:20;;;;;;;1.83;1.73;;;;;;;16.43;92.95;100139.84;4972870;58;1138727;-73
2023/07/22 02:21:25;;;;;;;2.03;1.50;;;;;;;16.28;93.89;100142.34;5020802;56;1138782;-70
2023/07/22 02:26:31;;;;;;;3.07;1.40;;;;;;;16.03;95.40;100140.14;5074877;57;1138655;-73
2023/07/22 02:31:36;;;;;;;2.07;1.83;;;;;;;15.88;96.56;100140.92;5043883;56;1138672;-75
2023/07/22 02:36:42;;;;;;;7.20;1.60;;;;;;;15.77;98.07;100140.70;4984206;57;1138555;-75
2023/07/22 02:41:48;;;;;;;1.30;1.30;;;;;;;15.72;98.17;100139.05;4973066;58;1138975;-73
2023/07/22 02:46:53;;;;;;;2.93;1.50;;;;;;;15.75;98.48;100144.03;4966439;58;1139073;-69
2023/07/22 02:51:59;;;;;;;2.00;1.90;;;;;;;15.77;98.24;100141.54;4967517;57;1138815;-70
2023/07/22 02:57:05;;;;;;;1.60;1.50;;;;;;;15.87;98.55;100153.92;4973657;57;1138616;-72
2023/07/22 03:02:14;;;;;;;2.70;1.90;;;;;;;15.91;98.56;100160.08;4979352;57;1138610;-73
2023/07/22 03:07:20;;;;;;;1.90;1.80;;;;;;;15.99;99.35;100151.28;5017339;57;1138743;-71
2023/07/22 03:12:25;;;;;;;2.27;2.00;;;;;;;16.10;99.24;100157.64;4986471;57;1138875;-72
2023/07/22 03:17:31;;;;;;;3.13;1.70;;;;;;;16.16;98.72;100159.17;4982713;56;1138996;-73
2023/07/22 03:22:37;;;;;;;2.77;2.17;;;;;;;16.13;97.97;100163.49;4963474;57;1193719;-71
2023/07/22 03:27:42;;;;;;;2.23;1.93;;;;;;;16.13;98.48;100158.16;4942165;57;1138860;-73
2023/07/22 03:32:55;;;;;;;1.80;1.70;;;;;;;16.06;98.02;100164.30;5054365;57;1138845;-76
2023/07/22 03:37:57;;;;;;;2.23;2.10;;;;;;;15.99;98.54;100168.63;5034046;57;1138956;-71
2023/07/22 03:43:03;;;;;;;2.47;2.20;;;;;;;15.91;99.04;100163.25;4938209;57;1138726;-73
2023/07/22 03:48:09;;;;;;;3.90;2.20;;;;;;;15.82;99.50;100167.73;4966042;57;1138737;-71
2023/07/22 03:53:14;;;;;;;3.65;2.50;;;;;;;15.79;100.00;100166.72;5016249;57;1138863;-71
2023/07/22 03:58:20;;;;;;;3.00;2.20;;;;;;;15.68;100.00;100167.02;4937820;58;1140737;-69
2023/07/22 04:03:25;;;;;;;3.93;2.50;;;;;;;15.60;100.00;100162.96;5014406;57;1140842;-74
2023/07/22 04:08:31;;;;;;;3.50;2.80;;;;;;;15.60;100.00;100168.30;5031267;57;1140877;-73
2023/07/22 04:13:37;;;;;;;3.00;2.50;;;;;;;15.51;100.00;100171.40;4937799;58;1141222;-76
2023/07/22 04:18:42;;;;;;;3.00;2.40;;;;;;;15.48;100.00;100169.88;4958638;57;1140929;-73
2023/07/22 04:23:49;;;;;;;2.15;2.05;;;;;;;15.54;100.00;100172.42;5018333;57;1140844;-72
2023/07/22 04:28:54;;;;;;;5.87;2.60;;;;;;;15.57;100.00;100167.30;5038329;57;1140886;-71
2023/07/22 04:34:00;;;;;;;2.60;2.40;;;;;;;15.60;100.00;100162.96;5020268;57;1140798;-74
2023/07/22 04:39:07;;;;;;;2.90;2.40;;;;;;;15.60;100.00;100170.46;5021127;57;1140842;-74
2023/07/22 04:44:12;;;;;;;4.00;2.02;;;;;;;15.61;100.00;100157.97;5015380;57;1140714;-70
2023/07/22 04:49:18;;;;;;;2.95;2.33;;;;;;;15.62;100.00;100163.64;4937776;57;1140935;-71
2023/07/22 04:54:23;;;;;;;2.72;2.35;;;;;;;15.63;100.00;100167.98;4937688;57;1140891;-73
2023/07/22 04:59:29;;;;;;;3.30;2.63;;;;;;;15.64;100.00;100166.98;5031027;57;1140920;-72
2023/07/22 05:04:35;;;;;;;4.50;3.00;;;;;;;15.64;100.00;100164.32;5085516;57;1140946;-71
2023/07/22 05:09:40;;;;;;;3.13;2.83;;;;;;;15.68;100.00;100181.18;5092500;57;1140631;-71
2023/07/22 05:14:47;;;;;;;3.73;2.60;;;;;;;15.78;100.00;100174.38;5060009;57;1141025;-74
2023/07/22 05:19:53;;;;;;;3.80;2.93;;;;;;;15.97;100.00;100174.61;4957340;57;1140844;-74
2023/07/22 05:24:58;;;;;;;5.77;2.83;;;;;;;16.07;100.00;100177.97;4938595;57;1140775;-74
2023/07/22 05:30:05;;;;;;;3.30;2.97;;;;;;;16.22;100.00;100177.67;4979383;57;1140721;-74
2023/07/22 05:35:10;;;;;;;2.80;2.60;;;;;;;16.33;100.00;100179.22;5008401;58;1141019;-70
2023/07/22 05:40:16;;;;;;;2.12;1.92;;;;;;;16.42;100.00;100168.88;5044873;57;1140702;-73
2023/07/22 05:45:21;;;;;;;2.95;2.20;;;;;;;16.55;100.00;100171.89;4938485;57;1140924;-73
2023/07/22 05:50:27;;;;;;;2.80;1.93;;;;;;;16.75;100.00;100167.93;4963751;57;1140748;-69
2023/07/22 05:55:33;;;;;;;3.93;2.43;;;;;;;16.89;100.00;100170.42;5008540;57;1141226;-71
2023/07/22 06:00:39;;;;;;;2.70;2.50;;;;;;;16.92;100.00;100176.77;5015567;57;1140948;-70
2023/07/22 06:05:44;;;;;;;1.85;1.72;;;;;;;16.98;100.00;100180.09;4956970;57;1141039;-72
2023/07/22 06:10:50;;;;;;;3.33;2.27;;;;;;;17.12;100.00;100187.42;4966863;56;1140854;-69
2023/07/22 06:15:55;;;;;;;7.03;2.30;;;;;;;17.23;100.00;100188.92;5003266;56;1140980;-71
2023/07/22 06:21:01;;;;;;;1.87;1.77;;;;;;;17.28;100.00;100187.89;5018375;57;1141166;-70
2023/07/22 06:26:07;;;;;;;2.27;2.10;;;;;;;17.46;100.00;100192.53;5044508;57;1140888;-71
2023/07/22 06:31:13;;;;;;;1.67;1.52;;;;;;;17.59;100.00;100197.34;5012201;57;1140618;-69
2023/07/22 06:36:18;;;;;;;5.45;2.10;;;;;;;17.61;100.00;100208.70;5018658;57;1140569;-69
2023/07/22 06:41:24;;;;;;;2.45;1.80;;;;;;;17.82;100.00;100207.67;5038560;57;1140501;-73
2023/07/22 06:46:31;;;;;;;4.90;2.60;;;;;;;17.89;97.12;100202.44;5018692;57;1141006;-70
2023/07/22 06:51:36;;;;;;;5.20;2.00;;;;;;;17.96;98.46;100205.27;5007294;57;1138667;-74
2023/07/22 06:56:42;;;;;;;5.93;2.07;;;;;;;18.13;97.27;100210.88;5037939;56;1138652;-73
2023/07/22 07:01:47;;;;;;;3.22;2.25;;;;;;;18.35;98.63;100218.60;5059766;56;1138887;-73
2023/07/22 07:06:53;;;;;;;2.37;1.87;;;;;;;18.28;92.85;100226.02;4951358;56;1138892;-70
2023/07/22 07:11:58;;;;;;;6.23;2.47;;;;;;;17.98;93.46;100228.67;4995422;57;1138753;-72
2023/07/22 07:17:04;;;;;;;3.37;2.63;;;;;;;17.83;95.70;100237.43;4979614;57;1138831;-75
2023/07/22 07:22:10;;;;;;;2.70;2.50;;;;;;;17.82;96.33;100250.98;4960272;57;1138849;-70
2023/07/22 07:27:15;;;;;;;2.90;2.70;;;;;;;17.88;96.54;100251.61;4960608;57;1138744;-70
2023/07/22 07:32:23;;;;;;;3.30;2.63;;;;;;;17.96;97.29;100254.77;5062226;56;1138764;-75
2023/07/22 07:37:28;;;;;;;2.98;2.67;;;;;;;18.24;95.63;100252.80;4960461;57;1138836;-73
2023/07/22 07:42:34;;;;;;;6.97;3.17;;;;;;;18.19;94.69;100257.00;4960376;58;1139048;-74
2023/07/22 07:47:40;;;;;;;4.17;2.90;;;;;;;18.28;95.54;100263.50;5026915;56;1138881;-72
2023/07/22 07:52:45;;;;;;;3.87;3.58;;;;;;;18.47;95.26;100268.09;5058847;56;1139062;-73
2023/07/22 07:57:51;;;;;;;3.80;3.20;;;;;;;18.25;94.03;100273.22;5037257;56;1138656;-73
2023/07/22 08:02:56;;;;;;;7.75;2.62;;;;;;;18.25;95.41;100271.04;5032018;56;1138938;-73
2023/07/22 08:08:03;;;;;;;2.45;2.35;;;;;;;18.50;94.99;100279.27;5077852;56;1138962;-69
2023/07/22 08:13:09;;;;;;;2.68;2.58;;;;;;;18.63;93.99;100284.61;5060944;56;1141294;-71
2023/07/22 08:18:15;;;;;;;2.50;2.35;;;;;;;18.73;91.74;100294.59;5028160;56;1138973;-69
2023/07/22 08:23:22;;;;;;;2.40;2.30;;;;;;;18.73;90.74;100290.06;5041045;57;1138983;-73
2023/07/22 08:28:30;;;;;;;2.43;2.30;;;;;;;18.62;89.58;100301.19;5035239;57;1138964;-73
2023/07/22 08:33:36;;;;;;;4.10;1.94;;;;;;;18.58;91.02;100313.22;5050306;57;1138687;-73
2023/07/22 08:38:41;;;;;;;2.30;2.02;;;;;;;18.54;87.55;100314.58;5053602;56;1138859;-73
2023/07/22 08:43:48;;;;;;;2.95;2.22;;;;;;;18.71;89.95;100312.67;5088780;56;1138861;-70
2023/07/22 08:48:55;;;;;;;2.50;1.98;;;;;;;18.66;85.77;100325.75;5015613;57;1138803;-72
2023/07/22 08:54:02;;;;;;;5.55;2.60;;;;;;;18.52;88.00;100328.64;5048871;57;1138727;-70
2023/07/22 08:59:08;;;;;;;1.80;1.70;;;;;;;18.59;83.83;100351.09;5002275;57;1138903;-74
2023/07/22 09:04:13;;;;;;;2.17;2.02;;;;;;;18.50;84.57;100342.70;4999228;57;1138788;-68
2023/07/22 09:09:20;;;;;;;2.37;1.70;;;;;;;18.71;84.63;100347.50;4977131;57;1139045;-72
2023/07/22 09:14:26;;;;;;;4.37;2.20;;;;;;;18.56;85.39;100356.75;5075116;56;1138746;-72
2023/07/22 09:19:32;;;;;;;1.87;1.50;;;;;;;18.51;86.53;100368.48;5129810;56;1138796;-72
2023/07/22 09:24:37;;;;;;;1.80;1.70;;;;;;;18.85;85.82;100360.15;5107514;56;1138738;-73
2023/07/22 09:29:46;;;;;;;2.30;1.15;;;;;;;19.27;86.26;100354.34;4986870;56;1138822;-70
2023/07/22 09:34:57;;;;;;;1.67;1.57;;;;;;;19.73;77.72;100357.00;5063524;56;1138687;-74
2023/07/22 09:40:03;;;;;;;3.92;1.40;;;;;;;19.78;77.38;100359.98;4973348;57;1138847;-74
2023/07/22 09:45:09;;;;;;;2.55;1.60;;;;;;;19.60;76.42;100367.84;4972233;56;1138767;-73
2023/07/22 09:50:24;;;;;;;5.78;1.85;;;;;;;19.48;74.37;100355.85;5072344;56;1138918;-70
2023/07/22 09:55:32;;;;;;;2.02;1.25;;;;;;;19.76;73.64;100364.19;5017466;57;1138631;-72
2023/07/22 10:00:38;;;;;;;2.15;1.62;;;;;;;20.00;69.00;100370.67;4964277;57;1138390;-70
2023/07/22 10:05:47;;;;;;;4.47;1.70;;;;;;;20.05;71.09;100368.76;4960826;57;1138821;-69
2023/07/22 10:10:55;;;;;;;2.83;1.50;;;;;;;20.18;70.22;100363.58;4979882;57;1138646;-71
2023/07/22 10:16:02;;;;;;;2.17;2.02;;;;;;;19.98;70.22;100359.78;4967829;57;1138735;-72
2023/07/22 10:21:08;;;;;;;2.55;1.85;;;;;;;19.97;69.38;100362.14;5026650;57;1139036;-74
2023/07/22 10:26:15;;;;;;;2.45;1.65;;;;;;;20.11;68.23;100357.80;4979680;58;1138684;-72
2023/07/22 10:31:22;;;;;;;1.93;1.83;;;;;;;20.39;64.96;100364.22;5004331;56;1139255;-70
2023/07/22 10:36:31;;;;;;;1.45;1.45;;;;;;;20.26;62.14;100357.30;5036685;57;1138595;-72
2023/07/22 10:41:39;;;;;;;1.92;1.82;;;;;;;20.41;63.50;100357.31;5055899;57;1138919;-69
2023/07/22 10:46:50;;;;;;;2.02;1.87;;;;;;;20.32;62.14;100355.19;5040126;57;1138684;-73
2023/07/22 10:51:57;;;;;;;2.13;1.73;;;;;;;20.39;62.43;100362.87;5028073;57;1138830;-74
2023/07/22 10:57:19;;;;;;;15.10;3.58;;;;;;;20.60;62.56;100355.41;4939742;57;1138580;-73
2023/07/22 11:02:30;;;;;;;1.83;1.73;;;;;;;20.99;61.98;100365.27;5035487;57;1140841;-73
2023/07/22 11:07:47;;;;;;;3.15;2.05;;;;;;;21.35;58.08;100369.80;5038727;57;1138597;-70
2023/07/22 11:12:54;;;;;;;4.85;1.50;;;;;;;21.43;58.22;100380.42;5037913;56;1138939;-71
2023/07/22 11:18:00;;;;;;;4.83;2.02;;;;;;;21.36;58.12;100370.13;5099336;56;1138952;-75
2023/07/22 11:23:06;;;;;;;5.75;1.92;;;;;;;21.31;56.57;100377.42;4979439;56;1138685;-74
2023/07/22 11:28:11;;;;;;;7.35;2.25;;;;;;;21.53;58.52;100367.50;4960042;56;1138717;-72
2023/07/22 11:33:17;;;;;;;2.65;2.37;;;;;;;21.73;55.80;100375.72;5038807;56;1138748;-69
2023/07/22 11:38:22;;;;;;;2.15;2.05;;;;;;;21.76;54.69;100361.88;4986596;57;1138878;-73
2023/07/22 11:43:27;;;;;;;2.80;2.50;;;;;;;;;;4917890;57;1138895;-66
2023/07/22 11:48:33;;;;;;;3.05;2.05;;;;;;;22.02;51.26;100361.25;5027877;57;817775;-66
2023/07/22 11:53:40;;;;;;;2.15;1.95;;;;;;;21.79;52.95;100366.88;5038946;57;1136732;-67
2023/07/22 11:58:51;;;;;;;2.30;2.07;;;;;;;21.80;51.38;100359.63;5036962;57;1138697;-65
2023/07/22 12:03:57;;;;;;;2.77;2.23;;;;;;;21.84;49.41;100348.28;5056390;57;1138876;-68
2023/07/22 12:09:03;;;;;;;3.25;2.42;;;;;;;21.77;51.57;100358.16;5028639;57;1138660;-68
2023/07/22 12:14:15;;;;;;;3.02;2.20;;;;;;;21.83;50.08;100355.20;5025292;57;1138514;-67
2023/07/22 12:19:21;;;;;;;6.03;1.87;;;;;;;21.69;49.61;100375.27;5057971;57;1138936;-65
2023/07/22 12:24:27;;;;;;;2.83;1.82;;;;;;;21.54;49.88;100360.26;5028202;57;1138890;-66
2023/07/22 12:29:33;;;;;;;6.83;2.23;;;;;;;21.68;52.13;100362.03;5019337;56;1138680;-65
2023/07/22 12:34:40;;;;;;;5.78;2.24;;;;;;;21.90;50.60;100355.55;5028517;56;1138739;-66
2023/07/22 12:39:46;;;;;;;3.60;1.80;;;;;;;22.02;48.49;100368.81;5025639;56;1138632;-66
2023/07/22 12:44:53;;;;;;;7.53;2.08;;;;;;;21.91;48.29;100373.38;5011529;56;1138595;-66
2023/07/22 12:49:58;;;;;;;1.92;1.82;;;;;;;21.84;46.72;100366.30;5049508;56;1138929;-66
2023/07/22 12:55:04;;;;;;;1.87;1.77;;;;;;;21.75;48.41;100365.08;5159302;56;1138797;-65
2023/07/22 13:00:11;;;;;;;7.42;2.35;;;;;;;21.83;48.70;100361.94;5139471;56;1138927;-64
2023/07/22 13:20:17;;;;;;;2.72;2.52;;;;;;;22.30;45.99;100370.67;5246150;56;46642;-63
2023/07/22 13:25:23;;;;;;;2.54;2.34;;;;;;;22.07;47.25;100361.50;4945898;57;1134591;-63
2023/07/22 13:30:28;;;;;;;2.47;2.27;;;;;;;;;;4973488;57;1138878;-64
2023/07/22 13:35:33;;;;;;;2.33;2.17;;;;;;;22.13;46.67;100375.55;4939915;58;817830;-63
2023/07/22 13:40:39;;;;;;;9.35;3.60;;;;;;;22.46;45.54;100370.31;4953694;57;1136762;-64
2023/07/22 13:45:44;;;;;;;2.62;2.25;;;;;;;22.40;46.23;100365.23;4988947;56;1138730;-66
2023/07/22 13:50:50;;;;;;;3.00;2.20;;;;;;;22.22;47.16;100369.47;4902645;57;1138903;-65
2023/07/22 13:55:56;;;;;;;2.00;1.90;;;;;;;22.21;46.15;100376.72;5087860;56;1138920;-65
2023/07/22 14:01:02;;;;;;;2.42;2.00;;;;;;;22.46;45.95;100348.23;5088215;56;1138842;-67
2023/07/22 14:06:08;;;;;;;3.02;2.55;;;;;;;22.85;47.51;100371.56;5042167;56;1138787;-65
2023/07/22 14:11:13;;;;;;;1.97;1.80;;;;;;;23.10;46.53;100375.36;5047000;56;1139099;-64
2023/07/22 14:16:20;;;;;;;2.52;2.17;;;;;;;23.10;42.70;100372.15;5098577;56;1138871;-66
2023/07/22 14:21:25;;;;;;;3.28;2.52;;;;;;;23.06;43.96;100373.61;5041482;56;1138811;-64
2023/07/22 14:26:31;;;;;;;1.82;1.72;;;;;;;22.99;40.95;100375.45;5102364;56;1138795;-65
2023/07/22 14:31:36;;;;;;;2.55;2.22;;;;;;;22.94;43.71;100371.69;5129126;56;1138936;-64
2023/07/22 14:36:42;;;;;;;2.45;1.92;;;;;;;23.10;41.89;100368.09;5109089;56;1138722;-64
2023/07/22 14:41:47;;;;;;;4.22;2.22;;;;;;;23.07;41.63;100361.76;5048030;56;1138760;-65
2023/07/22 14:46:53;;;;;;;2.58;2.35;;;;;;;23.29;42.91;100351.64;4941208;57;1138656;-65
2023/07/22 14:51:58;;;;;;;2.40;2.20;;;;;;;23.30;40.25;100348.42;4963415;57;1138791;-65
2023/07/22 14:57:05;;;;;;;2.52;1.87;;;;;;;23.17;40.25;100343.02;4969806;56;1138763;-65
2023/07/22 15:02:16;;;;;;;2.40;2.20;;;;;;;23.21;38.62;100350.50;4982851;57;1138828;-66
2023/07/22 15:07:17;;;;;;;1.62;1.52;;;;;;;23.28;40.92;100353.19;5006142;57;1139042;-65
2023/07/22 15:12:23;;;;;;;2.02;1.82;;;;;;;23.28;37.89;100360.77;4966345;57;1139064;-65
2023/07/22 15:17:31;;;;;;;5.60;2.05;;;;;;;23.28;37.99;100352.67;5099356;56;1138936;-64
2023/07/22 15:22:36;;;;;;;1.95;1.55;;;;;;;23.11;38.60;100350.88;5023362;56;1138911;-66
2023/07/22 15:27:43;;;;;;;2.77;2.17;;;;;;;23.11;40.01;100348.19;5017089;56;1138720;-64
2023/07/22 15:32:50;;;;;;;1.90;1.80;;;;;;;22.86;38.80;100359.75;5108806;56;1138799;-65
2023/07/22 15:37:56;;;;;;;2.42;1.75;;;;;;;23.27;38.75;100350.18;5024461;57;1138626;-65
2023/07/22 15:43:01;;;;;;;2.00;1.90;;;;;;;23.27;38.75;100350.18;5044309;56;1138538;-64
2023/07/22 15:48:07;;;;;;;2.80;1.70;;;;;;;23.27;39.51;100363.16;5080321;56;1139052;-65
2023/07/22 15:53:13;;;;;;;1.67;1.37;;;;;;;23.20;38.16;100357.45;5024974;57;1138836;-66
2023/07/22 15:58:20;;;;;;;4.53;1.80;;;;;;;23.04;37.96;100353.27;5044348;56;1138941;-65
2023/07/22 16:03:26;;;;;;;2.15;1.45;;;;;;;23.00;39.64;100360.92;5108672;56;1138837;-66
2023/07/22 16:08:32;;;;;;;4.20;1.65;;;;;;;22.82;40.23;100362.01;4974074;57;1138943;-65
2023/07/22 16:13:37;;;;;;;4.33;2.05;;;;;;;22.85;39.84;100367.00;4963223;58;1139067;-64
2023/07/22 16:18:43;;;;;;;2.15;1.87;;;;;;;22.84;40.49;100365.34;5074626;56;1138888;-65
2023/07/22 16:23:48;;;;;;;1.85;1.75;;;;;;;22.84;40.13;100372.08;5027271;57;1138807;-66
2023/07/22 16:28:54;;;;;;;1.90;1.70;;;;;;;22.83;41.42;100373.11;5078977;56;1140452;-64
2023/07/22 16:34:01;;;;;;;2.00;1.90;;;;;;;22.73;41.29;100374.81;5093817;56;1138883;-65
2023/07/22 16:39:07;;;;;;;1.95;1.72;;;;;;;22.56;41.46;100366.76;5098552;56;1138754;-65
2023/07/22 16:44:12;;;;;;;2.30;2.17;;;;;;;22.49;42.69;100376.66;5078837;56;1138926;-65
2023/07/22 16:49:18;;;;;;;2.45;2.27;;;;;;;22.60;41.60;100365.33;4962660;58;1138851;-66
2023/07/22 16:54:25;;;;;;;1.85;1.75;;;;;;;22.75;41.62;100367.36;4881029;58;1139000;-65
2023/07/22 16:59:30;;;;;;;3.55;1.80;;;;;;;22.83;41.71;100367.72;4943712;58;1138944;-65
2023/07/22 17:04:36;;;;;;;2.47;2.27;;;;;;;22.88;42.66;100369.81;4943090;58;1138870;-65
2023/07/22 17:09:42;;;;;;;9.33;2.42;;;;;;;22.77;41.71;100375.25;4939195;58;1138725;-65
2023/07/22 17:14:47;;;;;;;2.35;2.05;;;;;;;22.58;41.90;100367.39;4991066;58;1138958;-65
2023/07/22 17:19:53;;;;;;;3.03;2.73;;;;;;;22.32;43.56;100375.32;5068994;56;1138892;-65
2023/07/22 17:24:58;;;;;;;4.05;3.40;;;;;;;22.10;45.36;100376.77;5098504;56;1138739;-64
2023/07/22 17:30:04;;;;;;;7.35;3.27;;;;;;;22.00;46.59;100376.26;5078600;56;1138967;-64
2023/07/22 17:35:10;;;;;;;6.22;3.30;;;;;;;21.95;47.68;100384.09;5078513;57;1138848;-66
2023/07/22 17:40:18;;;;;;;5.47;3.33;;;;;;;21.95;48.46;100380.05;5098895;56;1146947;-65
2023/07/22 17:45:24;;;;;;;4.27;2.77;;;;;;;21.86;48.67;100377.67;5018215;57;1143609;-65
2023/07/22 17:50:31;;;;;;;6.97;3.62;;;;;;;21.83;49.60;100375.40;5072720;56;1139082;-66
2023/07/22 17:55:36;;;;;;;8.10;4.40;;;;;;;21.91;50.57;100372.55;5081692;56;1138749;-65
2023/07/22 18:00:42;;;;;;;8.15;3.50;;;;;;;21.92;50.92;100364.78;4996738;57;1138944;-65
2023/07/22 18:05:51;;;;;;;13.08;3.05;;;;;;;21.94;51.41;100372.99;5032868;57;1138726;-66
2023/07/22 18:10:56;;;;;;;5.50;3.20;;;;;;;21.95;52.56;100374.66;5010857;57;1141394;-65
2023/07/22 18:16:02;;;;;;;10.68;4.75;;;;;;;22.01;52.77;100377.09;5025222;57;1138841;-65
2023/07/22 18:21:08;;;;;;;5.35;4.03;;;;;;;22.00;53.01;100371.39;5027283;56;1140907;-64
2023/07/22 18:26:12;;;;;;;9.65;3.60;;;;;;;;;;5004462;57;1138809;-65
2023/07/22 18:31:19;;;;;;;4.97;3.60;;;;;;;21.96;52.74;100376.33;5096537;57;817832;-64
2023/07/22 18:36:25;;;;;;;9.48;3.90;;;;;;;21.89;53.37;100375.43;5045090;57;1136899;-66
2023/07/22 18:41:31;;;;;;;32.17;6.55;;;;;;;21.86;53.98;100377.16;5044979;57;1138700;-65
2023/07/22 18:46:37;;;;;;;18.20;6.87;;;;;;;21.83;54.50;100380.27;5064416;57;1140943;-65
2023/07/22 18:51:43;;;;;;;14.55;9.48;;;;;;;21.77;54.31;100385.08;5044607;57;1140961;-66
2023/07/22 18:56:48;;;;;;;21.87;10.78;;;;;;;21.74;54.83;100387.64;5043740;56;1140854;-65
2023/07/22 19:01:54;;;;;;;13.65;8.05;;;;;;;21.73;55.73;100394.05;5041399;56;1143331;-64
2023/07/22 19:06:59;;;;;;;24.20;13.78;;;;;;;21.71;56.22;100389.87;5064292;57;1140891;-64
2023/07/22 19:12:05;;;;;;;11.53;6.53;;;;;;;21.64;56.87;100399.27;5061596;56;1142887;-63
2023/07/22 19:17:11;;;;;;;18.90;7.65;;;;;;;21.55;57.33;100400.91;5101804;56;1140609;-66
2023/07/22 19:22:17;;;;;;;34.85;9.55;;;;;;;21.42;57.99;100408.36;5061126;56;1141233;-64
2023/07/22 19:27:23;;;;;;;35.95;14.25;;;;;;;21.31;58.66;100414.25;5091098;56;1141225;-65
2023/07/22 19:32:28;;;;;;;30.92;10.20;;;;;;;21.18;59.23;100409.53;5127614;56;1142971;-66
2023/07/22 19:37:34;;;;;;;14.10;7.60;;;;;;;21.13;59.84;100419.19;5148556;56;1142975;-65
2023/07/22 19:42:41;;;;;;;11.48;7.25;;;;;;;20.99;59.20;100424.42;5128625;56;1140823;-64
2023/07/22 19:47:47;;;;;;;12.30;6.87;;;;;;;20.86;59.63;100415.36;5068565;56;1141152;-65
2023/07/22 19:52:52;;;;;;;9.40;5.45;;;;;;;20.84;59.86;100421.44;5085455;56;1140855;-66
2023/07/22 19:57:59;;;;;;;10.28;5.47;;;;;;;20.82;60.50;100423.47;5082833;56;1138788;-65
2023/07/22 20:03:05;;;;;;;11.20;6.17;;;;;;;20.76;60.78;100435.83;5052049;56;1141240;-64
2023/07/22 20:08:11;;;;;;;13.15;5.30;;;;;;;20.58;60.96;100436.20;5103740;56;1140893;-64
2023/07/22 20:13:17;;;;;;;33.23;13.25;;;;;;;20.54;61.42;100439.44;5131811;56;1140812;-64
2023/07/22 20:18:23;;;;;;;37.42;14.80;;;;;;;20.47;61.94;100439.33;5082262;56;1143311;-64
2023/07/22 20:23:28;;;;;;;51.63;18.80;;;;;;;20.38;62.31;100437.77;5061116;56;1143062;-65
2023/07/22 20:28:34;;;;;;;61.63;19.37;;;;;;;20.24;62.82;100440.73;5120222;56;1143058;-65
2023/07/22 20:33:40;;;;;;;51.98;17.90;;;;;;;20.14;63.48;100443.36;5026926;56;1143056;-64
2023/07/22 20:38:45;;;;;;;41.77;14.43;;;;;;;19.95;63.63;100454.94;5043337;56;1143181;-64
2023/07/22 20:43:51;;;;;;;43.83;14.83;;;;;;;19.82;64.57;100452.54;5106359;56;1142997;-66
2023/07/22 20:48:56;;;;;;;39.53;14.65;;;;;;;19.82;65.00;100452.54;5114484;56;1143089;-64
2023/07/22 20:54:02;;;;;;;37.33;13.53;;;;;;;19.76;64.84;100454.09;5082073;56;1142877;-65
2023/07/22 20:59:08;;;;;;;19.15;9.10;;;;;;;19.74;65.09;100457.45;5046575;56;1142741;-65
2023/07/22 21:04:15;;;;;;;25.23;8.00;;;;;;;19.69;64.91;100463.89;5073382;56;1140837;-67
2023/07/22 21:09:20;;;;;;;7.65;5.58;;;;;;;19.57;64.47;100459.42;5100387;56;1140819;-65
2023/07/22 21:14:26;;;;;;;7.17;5.42;;;;;;;19.49;64.75;100466.67;5087022;56;1138789;-65
2023/07/22 21:19:32;;;;;;;8.30;5.35;;;;;;;19.42;64.76;100462.51;5088088;56;1138816;-65
2023/07/22 21:24:37;;;;;;;9.78;4.80;;;;;;;19.27;64.33;100459.75;5066155;56;1138821;-65
2023/07/22 21:29:44;;;;;;;5.55;4.67;;;;;;;19.17;64.76;100459.66;5048913;56;1138688;-65
2023/07/22 21:34:49;;;;;;;6.87;4.75;;;;;;;19.11;64.84;100459.00;5052712;56;1138890;-65
2023/07/22 21:39:55;;;;;;;6.97;5.08;;;;;;;19.07;64.97;100461.22;5041856;57;1139114;-64
2023/07/22 21:45:01;;;;;;;10.28;6.12;;;;;;;19.02;65.39;100460.06;5026153;56;1138754;-64
2023/07/22 21:50:08;;;;;;;7.60;5.25;;;;;;;18.96;65.60;100470.47;5109338;56;1140719;-64
2023/07/22 21:55:14;;;;;;;9.78;4.92;;;;;;;18.90;65.64;100464.48;5127889;56;1195857;-65
2023/07/22 22:00:19;;;;;;;9.86;6.24;;;;;;;18.84;65.96;100471.02;5105713;56;1138883;-64
2023/07/22 22:05:25;;;;;;;7.22;5.03;;;;;;;18.80;66.15;100477.73;5106115;56;1138538;-64
2023/07/22 22:10:32;;;;;;;17.70;6.72;;;;;;;18.76;66.37;100471.91;5128851;56;1138674;-64
2023/07/22 22:15:37;;;;;;;11.73;6.08;;;;;;;18.64;66.42;100474.60;5039395;56;1140708;-64
2023/07/22 22:20:43;;;;;;;17.67;5.28;;;;;;;18.59;66.88;100477.81;5041335;56;1141084;-64
2023/07/22 22:25:49;;;;;;;11.08;5.62;;;;;;;18.50;66.97;100466.74;5049275;56;1140972;-67
2023/07/22 22:31:01;;;;;;;12.82;6.20;;;;;;;18.45;67.13;100464.27;5039506;56;1140882;-63
2023/07/22 22:36:06;;;;;;;12.25;6.55;;;;;;;18.40;67.45;100470.63;5053523;56;1140849;-64
2023/07/22 22:41:12;;;;;;;10.15;6.17;;;;;;;18.33;67.86;100473.17;5065801;56;1140938;-64
2023/07/22 22:46:17;;;;;;;9.28;5.67;;;;;;;18.26;68.10;100470.83;4927868;58;1141249;-64
2023/07/22 22:51:23;;;;;;;9.73;5.90;;;;;;;18.12;68.07;100472.85;4996241;57;1138956;-64
2023/07/22 22:56:29;;;;;;;12.18;6.25;;;;;;;17.91;68.47;100474.19;4932685;58;1138428;-64
2023/07/22 23:01:34;;;;;;;25.57;10.30;;;;;;;17.79;69.18;100470.18;5098868;56;1140812;-64
2023/07/22 23:06:40;;;;;;;23.07;9.83;;;;;;;17.70;69.42;100471.19;5008249;57;1142838;-64
2023/07/22 23:11:45;;;;;;;16.85;7.75;;;;;;;17.63;70.04;100471.97;4987595;56;1140919;-64
2023/07/22 23:16:51;;;;;;;23.00;10.40;;;;;;;17.58;70.44;100477.30;4976529;57;1141243;-64
2023/07/22 23:21:57;;;;;;;28.67;12.80;;;;;;;17.55;70.62;100472.81;5014996;57;1143045;-64
2023/07/22 23:27:02;;;;;;;22.70;10.47;;;;;;;17.45;70.45;100464.92;5006976;58;1143190;-64